createdAt,value
2022-09-20T00:00:11.064Z,72.38
2022-09-20T00:01:14.146Z,72.45
2022-09-20T00:02:11.065Z,72.55
2022-09-20T00:03:11.071Z,72.46
2022-09-20T00:04:11.061Z,72.42
2022-09-20T00:05:12.140Z,72.42
2022-09-20T00:06:12.072Z,72.65
2022-09-20T00:07:11.065Z,72.63
2022-09-20T00:08:14.071Z,72.52
2022-09-20T00:09:11.064Z,72.61
2022-09-20T00:10:11.065Z,72.62
2022-09-20T00:11:14.064Z,72.51
2022-09-20T00:12:11.063Z,72.45
2022-09-20T00:13:11.065Z,72.35
2022-09-20T00:14:12.065Z,72.47
2022-09-20T00:15:11.064Z,72.44
2022-09-20T00:16:11.156Z,72.47
2022-09-20T00:17:11.065Z,72.47
2022-09-20T00:18:11.064Z,72.40
2022-09-20T00:19:15.067Z,72.44
2022-09-20T00:20:11.065Z,72.47
2022-09-20T00:21:15.057Z,72.51
2022-09-20T00:22:11.065Z,72.56
2022-09-20T00:23:11.057Z,72.75
2022-09-20T00:24:11.059Z,72.75
2022-09-20T00:25:11.065Z,72.95
2022-09-20T00:26:11.056Z,73.02
2022-09-20T00:27:11.061Z,72.86
2022-09-20T00:28:13.065Z,73.09
2022-09-20T00:29:11.057Z,72.97
2022-09-20T00:30:11.059Z,72.84
2022-09-20T00:31:11.079Z,72.75
2022-09-20T00:32:11.081Z,72.71
2022-09-20T00:33:11.055Z,72.71
2022-09-20T00:34:15.072Z,72.74
2022-09-20T00:35:14.067Z,72.84
2022-09-20T00:36:11.059Z,72.87
2022-09-20T00:37:11.059Z,72.82
2022-09-20T00:38:11.061Z,72.87
2022-09-20T00:39:12.061Z,72.81
2022-09-20T00:40:16.142Z,73.00
2022-09-20T00:41:11.060Z,72.88
2022-09-20T00:42:15.057Z,72.76
2022-09-20T00:43:15.067Z,72.75
2022-09-20T00:44:19.066Z,72.81
2022-09-20T00:45:17.061Z,72.81
2022-09-20T00:46:21.072Z,72.88
2022-09-20T00:47:19.061Z,72.94
2022-09-20T00:48:19.061Z,72.92
2022-09-20T00:49:20.069Z,72.98
2022-09-20T00:50:19.065Z,72.88
2022-09-20T00:51:14.061Z,73.06
2022-09-20T00:52:11.056Z,73.12
2022-09-20T00:53:17.067Z,73.06
2022-09-20T00:54:15.827Z,73.07
2022-09-20T00:55:13.246Z,73.09
2022-09-20T00:56:17.060Z,73.06
2022-09-20T00:57:11.069Z,72.99
2022-09-20T00:58:11.061Z,72.95
2022-09-20T00:59:19.064Z,72.86
2022-09-20T01:00:11.062Z,72.83
2022-09-20T01:01:11.119Z,72.86
2022-09-20T01:02:21.117Z,72.85
2022-09-20T01:03:13.065Z,72.94
2022-09-20T01:04:11.069Z,72.86
2022-09-20T01:05:11.062Z,72.93
2022-09-20T01:06:11.066Z,72.86
2022-09-20T01:07:13.070Z,72.96
2022-09-20T01:08:11.062Z,72.93
2022-09-20T01:09:11.064Z,72.78
2022-09-20T01:10:11.070Z,72.77
2022-09-20T01:11:11.066Z,72.77
2022-09-20T01:12:14.065Z,72.92
2022-09-20T01:13:11.071Z,72.90
2022-09-20T01:14:13.063Z,73.05
2022-09-20T01:15:11.059Z,72.99
2022-09-20T01:16:11.116Z,72.98
2022-09-20T01:17:11.065Z,73.11
2022-09-20T01:18:11.060Z,73.19
2022-09-20T01:19:19.072Z,73.13
2022-09-20T01:20:17.064Z,73.15
2022-09-20T01:21:11.056Z,73.22
2022-09-20T01:22:21.063Z,73.33
2022-09-20T01:23:19.063Z,73.45
2022-09-20T01:24:21.060Z,73.46
2022-09-20T01:25:16.061Z,73.38
2022-09-20T01:26:21.058Z,73.49
2022-09-20T01:27:19.063Z,73.50
2022-09-20T01:28:11.062Z,73.45
2022-09-20T01:29:21.062Z,73.41
2022-09-20T01:30:15.061Z,73.32
2022-09-20T01:31:21.159Z,73.26
2022-09-20T01:32:13.057Z,73.31
2022-09-20T01:33:19.071Z,73.49
2022-09-20T01:34:13.061Z,73.49
2022-09-20T01:35:11.058Z,73.60
2022-09-20T01:36:16.060Z,73.62
2022-09-20T01:37:21.061Z,73.64
2022-09-20T01:38:19.065Z,73.74
2022-09-20T01:39:19.059Z,73.70
2022-09-20T01:40:19.095Z,73.75
2022-09-20T01:41:19.064Z,73.74
2022-09-20T01:42:12.071Z,73.81
2022-09-20T01:43:19.060Z,73.82
2022-09-20T01:44:21.058Z,73.79
2022-09-20T01:45:23.061Z,73.75
2022-09-20T01:46:19.121Z,73.80
2022-09-20T01:47:19.075Z,73.81
2022-09-20T01:48:21.065Z,73.79
2022-09-20T01:49:19.061Z,73.80
2022-09-20T01:50:19.058Z,73.85
2022-09-20T01:51:19.060Z,73.80
2022-09-20T01:52:21.072Z,73.99
2022-09-20T01:53:21.064Z,73.96
2022-09-20T01:54:21.064Z,74.03
2022-09-20T01:55:21.062Z,73.99
2022-09-20T01:56:21.064Z,74.02
2022-09-20T01:57:26.457Z,74.03
2022-09-20T01:58:21.439Z,74.01
2022-09-20T01:59:24.197Z,73.96
2022-09-20T02:00:15.064Z,73.94
2022-09-20T02:01:19.153Z,73.88
2022-09-20T02:02:19.098Z,73.95
2022-09-20T02:03:19.073Z,73.86
2022-09-20T02:04:19.063Z,73.86
2022-09-20T02:05:19.062Z,73.82
2022-09-20T02:06:19.063Z,73.90
2022-09-20T02:07:19.072Z,74.07
2022-09-20T02:08:19.064Z,74.01
2022-09-20T02:09:21.063Z,74.09
2022-09-20T02:10:21.073Z,74.11
2022-09-20T02:11:21.067Z,74.13
2022-09-20T02:12:21.063Z,74.21
2022-09-20T02:13:16.071Z,74.24
2022-09-20T02:14:19.065Z,74.22
2022-09-20T02:15:19.063Z,74.38
2022-09-20T02:16:21.154Z,74.42
2022-09-20T02:17:17.065Z,74.51
2022-09-20T02:18:21.077Z,74.40
2022-09-20T02:19:21.065Z,74.44
2022-09-20T02:20:19.067Z,74.38
2022-09-20T02:21:19.055Z,74.36
2022-09-20T02:22:21.058Z,74.47
2022-09-20T02:23:19.067Z,74.47
2022-09-20T02:24:19.063Z,74.44
2022-09-20T02:25:19.058Z,74.34
2022-09-20T02:26:19.066Z,74.37
2022-09-20T02:27:19.062Z,74.44
2022-09-20T02:28:19.076Z,74.30
2022-09-20T02:29:19.063Z,74.21
2022-09-20T02:30:19.061Z,74.19
2022-09-20T02:31:17.210Z,74.17
2022-09-20T02:32:19.070Z,74.06
2022-09-20T02:33:21.080Z,73.92
2022-09-20T02:34:19.060Z,73.99
2022-09-20T02:35:21.070Z,74.08
2022-09-20T02:36:19.064Z,74.19
2022-09-20T02:37:19.072Z,74.37
2022-09-20T02:38:19.063Z,74.34
2022-09-20T02:39:21.062Z,74.30
2022-09-20T02:40:19.160Z,74.29
2022-09-20T02:41:21.062Z,74.36
2022-09-20T02:42:19.070Z,74.29
2022-09-20T02:43:20.061Z,74.27
2022-09-20T02:44:19.061Z,74.42
2022-09-20T02:45:18.058Z,74.48
2022-09-20T02:46:21.117Z,74.33
2022-09-20T02:47:19.075Z,74.17
2022-09-20T02:48:11.064Z,74.12
2022-09-20T02:49:20.059Z,74.13
2022-09-20T02:50:19.062Z,74.16
2022-09-20T02:51:21.070Z,74.16
2022-09-20T02:52:21.065Z,74.22
2022-09-20T02:53:19.065Z,74.18
2022-09-20T02:54:21.062Z,74.15
2022-09-20T02:55:19.067Z,74.09
2022-09-20T02:56:19.065Z,74.09
2022-09-20T02:57:19.065Z,74.04
2022-09-20T02:58:19.062Z,74.01
2022-09-20T02:59:21.062Z,73.97
2022-09-20T03:00:23.065Z,73.98
2022-09-20T03:01:19.103Z,74.12
2022-09-20T03:02:19.125Z,74.17
2022-09-20T03:03:19.070Z,74.16
2022-09-20T03:04:19.063Z,74.25
2022-09-20T03:05:19.064Z,74.25
2022-09-20T03:06:21.074Z,74.34
2022-09-20T03:07:21.066Z,74.26
2022-09-20T03:08:19.063Z,74.27
2022-09-20T03:09:19.061Z,74.18
2022-09-20T03:10:19.066Z,74.08
2022-09-20T03:11:19.072Z,74.10
2022-09-20T03:12:19.068Z,74.01
2022-09-20T03:13:19.065Z,73.94
2022-09-20T03:14:19.068Z,73.95
2022-09-20T03:15:21.066Z,73.97
2022-09-20T03:16:16.136Z,73.97
2022-09-20T03:17:19.067Z,73.96
2022-09-20T03:18:15.075Z,73.92
2022-09-20T03:19:21.068Z,73.93
2022-09-20T03:20:21.066Z,74.01
2022-09-20T03:21:19.065Z,74.08
2022-09-20T03:22:21.060Z,74.14
2022-09-20T03:23:19.062Z,74.16
2022-09-20T03:24:19.058Z,74.13
2022-09-20T03:25:21.061Z,74.27
2022-09-20T03:26:21.061Z,74.17
2022-09-20T03:27:19.070Z,74.24
2022-09-20T03:28:21.060Z,74.22
2022-09-20T03:29:19.058Z,74.22
2022-09-20T03:30:19.062Z,74.17
2022-09-20T03:31:19.170Z,74.25
2022-09-20T03:32:19.059Z,74.25
2022-09-20T03:33:18.057Z,74.26
2022-09-20T03:34:19.056Z,74.33
2022-09-20T03:35:21.058Z,74.38
2022-09-20T03:36:20.067Z,74.45
2022-09-20T03:37:19.061Z,74.42
2022-09-20T03:38:21.057Z,74.63
2022-09-20T03:39:21.060Z,74.64
2022-09-20T03:40:21.118Z,74.77
2022-09-20T03:41:23.059Z,74.79
2022-09-20T03:42:15.060Z,74.79
2022-09-20T03:43:21.063Z,74.85
2022-09-20T03:44:21.059Z,74.83
2022-09-20T03:45:19.061Z,75.07
2022-09-20T03:46:18.096Z,74.99
2022-09-20T03:47:19.068Z,75.02
2022-09-20T03:48:19.063Z,74.99
2022-09-20T03:49:21.059Z,75.04
2022-09-20T03:50:21.058Z,74.96
2022-09-20T03:51:18.062Z,74.93
2022-09-20T03:52:19.068Z,74.99
2022-09-20T03:53:19.061Z,74.98
2022-09-20T03:54:19.065Z,75.05
2022-09-20T03:55:19.063Z,75.04
2022-09-20T03:56:19.063Z,75.05
2022-09-20T03:57:19.071Z,75.11
2022-09-20T03:58:19.063Z,75.04
2022-09-20T03:59:19.061Z,74.93
2022-09-20T04:00:19.064Z,74.92
2022-09-20T04:01:19.119Z,74.91
2022-09-20T04:02:21.168Z,74.80
2022-09-20T04:03:19.066Z,74.75
2022-09-20T04:04:19.062Z,74.81
2022-09-20T04:05:17.066Z,74.93
2022-09-20T04:06:19.065Z,74.99
2022-09-20T04:07:19.076Z,75.13
2022-09-20T04:08:19.064Z,75.23
2022-09-20T04:09:19.064Z,75.41
2022-09-20T04:10:21.066Z,75.57
2022-09-20T04:11:19.063Z,75.55
2022-09-20T04:12:19.071Z,75.56
2022-09-20T04:13:19.064Z,75.53
2022-09-20T04:14:16.064Z,75.57
2022-09-20T04:15:19.066Z,75.61
2022-09-20T04:16:19.119Z,75.54
2022-09-20T04:17:19.070Z,75.49
2022-09-20T04:18:21.067Z,75.46
2022-09-20T04:19:21.062Z,75.41
2022-09-20T04:20:20.064Z,75.48
2022-09-20T04:21:21.060Z,75.46
2022-09-20T04:22:11.060Z,75.50
2022-09-20T04:23:19.063Z,75.40
2022-09-20T04:24:21.056Z,75.32
2022-09-20T04:25:19.061Z,75.31
2022-09-20T04:26:11.058Z,75.32
2022-09-20T04:27:21.058Z,75.28
2022-09-20T04:28:17.056Z,75.25
2022-09-20T04:29:22.055Z,75.36
2022-09-20T04:30:17.056Z,75.47
2022-09-20T04:31:20.870Z,75.42
2022-09-20T04:32:19.119Z,75.35
2022-09-20T04:33:19.057Z,75.37
2022-09-20T04:34:19.056Z,75.62
2022-09-20T04:35:23.060Z,75.48
2022-09-20T04:36:25.073Z,75.45
2022-09-20T04:37:19.067Z,75.60
2022-09-20T04:38:16.059Z,75.78
2022-09-20T04:39:19.058Z,75.76
2022-09-20T04:40:19.116Z,75.69
2022-09-20T04:41:21.063Z,75.58
2022-09-20T04:42:19.072Z,75.57
2022-09-20T04:43:19.061Z,75.52
2022-09-20T04:44:19.060Z,75.79
2022-09-20T04:45:19.062Z,75.69
2022-09-20T04:46:21.184Z,75.65
2022-09-20T04:47:21.068Z,75.52
2022-09-20T04:48:19.061Z,75.52
2022-09-20T04:49:21.061Z,75.53
2022-09-20T04:50:19.059Z,75.74
2022-09-20T04:51:21.061Z,75.75
2022-09-20T04:52:19.064Z,75.70
2022-09-20T04:53:19.063Z,75.72
2022-09-20T04:54:19.063Z,75.60
2022-09-20T04:55:21.061Z,75.65
2022-09-20T04:56:20.063Z,75.83
2022-09-20T04:57:19.061Z,75.77
2022-09-20T04:58:19.069Z,75.78
2022-09-20T04:59:21.061Z,75.76
2022-09-20T05:00:18.063Z,75.84
2022-09-20T05:01:19.133Z,75.82
2022-09-20T05:02:19.106Z,75.63
2022-09-20T05:03:19.070Z,75.69
2022-09-20T05:04:19.064Z,75.70
2022-09-20T05:05:19.066Z,75.78
2022-09-20T05:06:19.061Z,75.73
2022-09-20T05:07:21.058Z,75.78
2022-09-20T05:08:19.063Z,75.79
2022-09-20T05:09:21.071Z,75.81
2022-09-20T05:10:19.064Z,75.88
2022-09-20T05:11:19.061Z,75.87
2022-09-20T05:12:19.059Z,75.96
2022-09-20T05:13:19.062Z,76.00
2022-09-20T05:14:19.159Z,75.99
2022-09-20T05:15:19.067Z,76.13
2022-09-20T05:16:17.136Z,76.37
2022-09-20T05:17:19.060Z,76.32
2022-09-20T05:18:19.063Z,76.43
2022-09-20T05:19:21.071Z,76.47
2022-09-20T05:20:21.065Z,76.47
2022-09-20T05:21:19.058Z,76.44
2022-09-20T05:22:19.061Z,76.38
2022-09-20T05:23:19.061Z,76.39
2022-09-20T05:24:20.074Z,76.39
2022-09-20T05:25:19.061Z,76.42
2022-09-20T05:26:19.059Z,76.35
2022-09-20T05:27:19.059Z,76.30
2022-09-20T05:28:19.059Z,76.34
2022-09-20T05:29:18.069Z,76.34
2022-09-20T05:30:23.061Z,76.37
2022-09-20T05:31:19.134Z,76.41
2022-09-20T05:32:19.067Z,76.27
2022-09-20T05:33:19.062Z,76.43
2022-09-20T05:34:19.063Z,76.45
2022-09-20T05:35:18.062Z,76.50
2022-09-20T05:36:21.063Z,76.50
2022-09-20T05:37:19.060Z,76.45
2022-09-20T05:38:19.118Z,76.49
2022-09-20T05:39:19.065Z,76.52
2022-09-20T05:40:19.114Z,76.57
2022-09-20T05:41:20.062Z,76.59
2022-09-20T05:42:19.061Z,76.57
2022-09-20T05:43:18.058Z,76.53
2022-09-20T05:44:19.062Z,76.60
2022-09-20T05:45:19.069Z,76.65
2022-09-20T05:46:21.063Z,76.59
2022-09-20T05:47:18.063Z,76.60
2022-09-20T05:48:17.062Z,76.43
2022-09-20T05:49:21.065Z,76.44
2022-09-20T05:50:19.065Z,76.50
2022-09-20T05:51:19.065Z,76.51
2022-09-20T05:52:19.061Z,76.58
2022-09-20T05:53:21.060Z,76.54
2022-09-20T05:54:19.065Z,76.47
2022-09-20T05:55:19.067Z,76.48
2022-09-20T05:56:19.076Z,76.50
2022-09-20T05:57:21.065Z,76.42
2022-09-20T05:58:21.063Z,76.31
2022-09-20T05:59:19.060Z,76.34
2022-09-20T06:00:20.065Z,76.18
2022-09-20T06:01:19.160Z,76.13
2022-09-20T06:02:19.112Z,76.07
2022-09-20T06:03:21.065Z,76.07
2022-09-20T06:04:17.063Z,76.21
2022-09-20T06:05:19.066Z,76.34
2022-09-20T06:06:19.069Z,76.26
2022-09-20T06:07:19.073Z,76.39
2022-09-20T06:08:21.067Z,76.40
2022-09-20T06:09:23.063Z,76.38
2022-09-20T06:10:19.062Z,76.55
2022-09-20T06:11:19.064Z,76.50
2022-09-20T06:12:19.072Z,76.48
2022-09-20T06:13:20.066Z,76.38
2022-09-20T06:14:19.064Z,76.38
2022-09-20T06:15:21.062Z,76.37
2022-09-20T06:16:18.142Z,76.34
2022-09-20T06:17:19.074Z,76.38
2022-09-20T06:18:19.070Z,76.39
2022-09-20T06:19:23.067Z,76.37
2022-09-20T06:20:21.066Z,76.42
2022-09-20T06:21:19.052Z,76.53
2022-09-20T06:22:19.059Z,76.67
2022-09-20T06:23:11.057Z,76.78
2022-09-20T06:24:21.057Z,76.89
2022-09-20T06:25:19.054Z,76.94
2022-09-20T06:26:16.052Z,76.89
2022-09-20T06:27:17.059Z,77.03
2022-09-20T06:28:19.057Z,77.05
2022-09-20T06:29:13.057Z,77.05
2022-09-20T06:30:18.056Z,77.08
2022-09-20T06:31:12.153Z,77.06
2022-09-20T06:32:11.065Z,76.97
2022-09-20T06:33:18.058Z,76.96
2022-09-20T06:34:14.053Z,76.92
2022-09-20T06:35:11.057Z,77.09
2022-09-20T06:36:23.058Z,77.11
2022-09-20T06:37:23.055Z,77.21
2022-09-20T06:38:23.054Z,77.27
2022-09-20T06:39:25.057Z,77.19
2022-09-20T06:40:23.085Z,77.21
2022-09-20T06:41:15.059Z,77.19
2022-09-20T06:42:11.059Z,77.16
2022-09-20T06:43:11.057Z,77.23
2022-09-20T06:44:11.057Z,77.25
2022-09-20T06:45:11.066Z,77.18
2022-09-20T06:46:11.093Z,77.25
2022-09-20T06:47:12.059Z,77.40
2022-09-20T06:48:11.065Z,77.80
2022-09-20T06:49:13.060Z,77.75
2022-09-20T06:50:17.055Z,77.64
2022-09-20T06:51:11.066Z,77.56
2022-09-20T06:52:17.059Z,77.55
2022-09-20T06:53:15.056Z,77.60
2022-09-20T06:54:16.059Z,77.58
2022-09-20T06:55:20.067Z,77.42
2022-09-20T06:56:20.059Z,77.52
2022-09-20T06:57:11.057Z,77.49
2022-09-20T06:58:11.062Z,77.47
2022-09-20T06:59:14.069Z,77.51
2022-09-20T07:00:12.060Z,77.43
2022-09-20T07:01:11.124Z,77.59
2022-09-20T07:02:11.141Z,77.40
2022-09-20T07:03:11.060Z,77.46
2022-09-20T07:04:11.063Z,77.56
2022-09-20T07:05:17.065Z,77.46
2022-09-20T07:06:11.068Z,77.48
2022-09-20T07:07:15.058Z,77.56
2022-09-20T07:08:11.065Z,77.40
2022-09-20T07:09:12.071Z,77.47
2022-09-20T07:10:11.061Z,77.36
2022-09-20T07:11:13.060Z,77.29
2022-09-20T07:12:11.063Z,77.35
2022-09-20T07:13:11.061Z,77.67
2022-09-20T07:14:11.060Z,77.52
2022-09-20T07:15:11.061Z,77.31
2022-09-20T07:16:12.119Z,77.17
2022-09-20T07:17:11.061Z,77.10
2022-09-20T07:18:11.065Z,77.00
2022-09-20T07:19:11.069Z,76.88
2022-09-20T07:20:11.062Z,76.67
2022-09-20T07:21:14.053Z,76.49
2022-09-20T07:22:11.063Z,76.58
2022-09-20T07:23:11.056Z,76.45
2022-09-20T07:24:11.052Z,76.34
2022-09-20T07:25:11.075Z,76.21
2022-09-20T07:26:19.055Z,76.09
2022-09-20T07:27:11.058Z,76.00
2022-09-20T07:28:11.052Z,75.97
2022-09-20T07:29:11.057Z,75.79
2022-09-20T07:30:11.055Z,75.64
2022-09-20T07:31:11.054Z,75.45
2022-09-20T07:32:11.055Z,75.31
2022-09-20T07:33:11.057Z,75.12
2022-09-20T07:34:11.053Z,75.34
2022-09-20T07:35:11.055Z,75.31
2022-09-20T07:36:11.063Z,75.09
2022-09-20T07:37:11.054Z,74.95
2022-09-20T07:38:11.058Z,74.88
2022-09-20T07:39:11.065Z,74.94
2022-09-20T07:40:11.080Z,74.93
2022-09-20T07:41:11.058Z,74.88
2022-09-20T07:42:11.064Z,74.97
2022-09-20T07:43:11.056Z,74.83
2022-09-20T07:44:15.056Z,74.71
2022-09-20T07:45:11.063Z,74.63
2022-09-20T07:46:11.086Z,74.77
2022-09-20T07:47:11.056Z,74.69
2022-09-20T07:48:11.056Z,74.59
2022-09-20T07:49:11.059Z,74.58
2022-09-20T07:50:11.057Z,74.44
2022-09-20T07:51:11.061Z,74.37
2022-09-20T07:52:11.057Z,74.33
2022-09-20T07:53:11.059Z,74.21
2022-09-20T07:54:11.072Z,74.13
2022-09-20T07:55:11.059Z,74.14
2022-09-20T07:56:15.059Z,73.99
2022-09-20T07:57:11.058Z,73.82
2022-09-20T07:58:11.066Z,73.86
2022-09-20T07:59:11.060Z,73.66
2022-09-20T08:00:11.060Z,73.71
2022-09-20T08:01:11.129Z,73.54
2022-09-20T08:02:15.099Z,73.38
2022-09-20T08:03:11.056Z,73.24
2022-09-20T08:04:11.058Z,73.31
2022-09-20T08:05:11.060Z,73.38
2022-09-20T08:06:11.058Z,73.10
2022-09-20T08:07:11.060Z,73.07
2022-09-20T08:08:11.067Z,73.07
2022-09-20T08:09:11.426Z,72.97
2022-09-20T08:10:11.061Z,72.87
2022-09-20T08:11:11.070Z,72.81
2022-09-20T08:14:15.070Z,72.61
2022-09-20T08:15:11.994Z,72.63
2022-09-20T08:16:11.126Z,72.71
2022-09-20T08:17:11.061Z,72.57
2022-09-20T08:18:11.061Z,72.50
2022-09-20T08:19:14.065Z,72.58
2022-09-20T08:20:11.064Z,72.46
2022-09-20T08:21:11.067Z,72.29
2022-09-20T08:22:11.056Z,72.53
2022-09-20T08:23:22.419Z,72.45
2022-09-20T08:24:13.094Z,72.24
2022-09-20T08:25:11.060Z,72.04
2022-09-20T08:26:11.059Z,71.99
2022-09-20T08:27:11.058Z,71.82
2022-09-20T08:28:11.059Z,71.63
2022-09-20T08:29:11.057Z,71.45
2022-09-20T08:30:11.059Z,71.21
2022-09-20T08:31:11.059Z,70.92
2022-09-20T08:32:11.057Z,70.90
2022-09-20T08:33:11.060Z,70.62
2022-09-20T08:34:11.067Z,70.30
2022-09-20T08:35:11.058Z,70.04
2022-09-20T08:36:13.061Z,70.19
2022-09-20T08:37:11.071Z,69.41
2022-09-20T08:40:14.095Z,68.32
2022-09-20T08:41:15.068Z,68.21
2022-09-20T08:42:19.062Z,67.79
2022-09-20T08:43:11.056Z,67.44
2022-09-20T08:44:21.069Z,67.26
2022-09-20T08:45:23.265Z,67.13
2022-09-20T08:46:16.125Z,66.99
2022-09-20T08:47:19.062Z,66.82
2022-09-20T08:48:16.065Z,66.85
2022-09-20T08:49:16.064Z,66.91
2022-09-20T08:50:17.251Z,67.00
2022-09-20T08:51:22.664Z,66.93
2022-09-20T08:52:21.057Z,66.96
2022-09-20T08:53:13.068Z,67.05
2022-09-20T08:54:13.065Z,66.97
2022-09-20T08:55:15.070Z,67.01
2022-09-20T08:56:11.069Z,67.05
2022-09-20T08:57:16.063Z,67.10
2022-09-20T08:58:11.080Z,67.04
2022-09-20T08:59:15.062Z,66.84
2022-09-20T09:00:19.182Z,66.61
2022-09-20T09:01:14.151Z,66.51
2022-09-20T09:02:18.120Z,66.40
2022-09-20T09:03:14.062Z,66.57
2022-09-20T09:04:14.060Z,66.73
2022-09-20T09:05:19.072Z,66.68
2022-09-20T09:06:14.228Z,66.46
2022-09-20T09:07:17.352Z,66.37
2022-09-20T09:08:15.066Z,66.02
2022-09-20T09:09:17.072Z,65.60
2022-09-20T09:10:11.065Z,65.53
2022-09-20T09:11:16.063Z,65.75
2022-09-20T09:12:19.066Z,65.25
2022-09-20T09:13:17.074Z,65.07
2022-09-20T09:14:22.065Z,64.90
2022-09-20T09:15:19.063Z,64.86
2022-09-20T09:16:15.119Z,64.67
2022-09-20T09:17:13.141Z,64.48
2022-09-20T09:18:13.066Z,64.37
2022-09-20T09:19:19.064Z,64.34
2022-09-20T09:20:18.082Z,64.16
2022-09-20T09:21:15.060Z,64.09
2022-09-20T09:22:11.067Z,64.05
2022-09-20T09:23:15.055Z,63.90
2022-09-20T09:24:16.061Z,63.67
2022-09-20T09:25:19.067Z,63.47
2022-09-20T09:26:15.060Z,63.30
2022-09-20T09:27:18.055Z,63.26
2022-09-20T09:28:15.060Z,63.45
2022-09-20T09:29:16.067Z,63.41
2022-09-20T09:30:19.057Z,63.52
2022-09-20T09:31:19.121Z,63.41
2022-09-20T09:32:19.059Z,63.26
2022-09-20T09:33:19.065Z,63.13
2022-09-20T09:34:19.059Z,62.93
2022-09-20T09:35:21.057Z,62.85
2022-09-20T09:36:14.058Z,62.81
2022-09-20T09:37:23.268Z,62.83
2022-09-20T09:38:21.131Z,62.98
2022-09-20T09:39:19.071Z,63.08
2022-09-20T09:40:16.117Z,63.01
2022-09-20T09:41:19.059Z,63.19
2022-09-20T09:42:19.060Z,63.07
2022-09-20T09:43:19.072Z,62.91
2022-09-20T09:44:22.060Z,62.86
2022-09-20T09:45:18.062Z,62.79
2022-09-20T09:46:18.137Z,62.64
2022-09-20T09:47:19.060Z,62.57
2022-09-20T09:48:21.070Z,62.42
2022-09-20T09:49:17.195Z,62.30
2022-09-20T09:50:19.064Z,62.26
2022-09-20T09:51:14.058Z,62.35
2022-09-20T09:52:17.064Z,62.29
2022-09-20T09:53:19.063Z,62.22
2022-09-20T09:54:17.061Z,61.78
2022-09-20T09:55:13.059Z,61.64
2022-09-20T09:56:19.070Z,61.53
2022-09-20T09:57:19.063Z,61.43
2022-09-20T09:58:21.062Z,61.39
2022-09-20T09:59:21.062Z,61.41
2022-09-20T10:00:21.488Z,61.64
2022-09-20T10:01:21.100Z,61.40
2022-09-20T10:02:19.143Z,61.27
2022-09-20T10:03:21.065Z,61.27
2022-09-20T10:04:21.061Z,61.20
2022-09-20T10:05:21.059Z,60.93
2022-09-20T10:06:19.065Z,60.55
2022-09-20T10:07:18.065Z,60.34
2022-09-20T10:08:19.066Z,60.50
2022-09-20T10:09:19.066Z,60.21
2022-09-20T10:10:21.064Z,60.04
2022-09-20T10:11:21.066Z,60.14
2022-09-20T10:12:21.064Z,59.94
2022-09-20T10:13:19.100Z,59.54
2022-09-20T10:14:19.104Z,59.90
2022-09-20T10:15:19.066Z,59.91
2022-09-20T10:16:19.131Z,60.00
2022-09-20T10:17:21.066Z,59.99
2022-09-20T10:18:22.074Z,59.61
2022-09-20T10:19:22.826Z,59.68
2022-09-20T10:20:19.066Z,59.52
2022-09-20T10:21:19.057Z,59.41
2022-09-20T10:22:19.058Z,59.62
2022-09-20T10:23:51.542Z,59.65
2022-09-20T10:24:21.077Z,59.43
2022-09-20T10:25:21.060Z,59.10
2022-09-20T10:26:19.057Z,59.13
2022-09-20T10:27:21.061Z,59.21
2022-09-20T10:28:19.057Z,59.10
2022-09-20T10:29:19.071Z,59.02
2022-09-20T10:30:19.061Z,58.63
2022-09-20T10:31:23.469Z,58.47
2022-09-20T10:32:23.087Z,58.70
2022-09-20T10:33:21.057Z,58.35
2022-09-20T10:34:19.067Z,57.87
2022-09-20T10:35:19.059Z,57.31
2022-09-20T10:36:21.056Z,56.90
2022-09-20T10:37:19.062Z,56.41
2022-09-20T10:38:17.061Z,56.36
2022-09-20T10:39:23.063Z,56.25
2022-09-20T10:40:21.107Z,56.23
2022-09-20T10:41:21.058Z,56.05
2022-09-20T10:42:23.056Z,55.60
2022-09-20T10:43:22.061Z,55.38
2022-09-20T10:44:23.064Z,55.57
2022-09-20T10:45:50.816Z,55.51
2022-09-20T10:46:32.240Z,55.28
2022-09-20T10:47:19.145Z,55.21
2022-09-20T10:48:21.059Z,55.07
2022-09-20T10:49:19.059Z,55.10
2022-09-20T10:50:19.060Z,55.29
2022-09-20T10:51:19.071Z,55.13
2022-09-20T10:52:19.061Z,55.22
2022-09-20T10:53:21.061Z,55.14
2022-09-20T10:54:21.063Z,55.30
2022-09-20T10:55:19.062Z,55.85
2022-09-20T10:56:19.070Z,55.79
2022-09-20T10:57:21.064Z,55.36
2022-09-20T10:58:19.061Z,54.95
2022-09-20T10:59:19.061Z,55.10
2022-09-20T11:00:19.080Z,54.72
2022-09-20T11:01:21.098Z,54.60
2022-09-20T11:02:19.158Z,54.38
2022-09-20T11:03:21.061Z,54.39
2022-09-20T11:04:19.063Z,54.25
2022-09-20T11:05:19.070Z,53.96
2022-09-20T11:06:21.067Z,53.90
2022-09-20T11:07:18.073Z,53.92
2022-09-20T11:08:16.065Z,53.95
2022-09-20T11:09:15.078Z,54.03
2022-09-20T11:10:16.064Z,53.85
2022-09-20T11:11:16.075Z,53.56
2022-09-20T11:12:19.064Z,53.68
2022-09-20T11:13:19.061Z,53.68
2022-09-20T11:14:18.065Z,53.74
2022-09-20T11:15:21.074Z,53.55
2022-09-20T11:16:19.118Z,53.25
2022-09-20T11:17:23.063Z,53.27
2022-09-20T11:18:19.065Z,53.23
2022-09-20T11:19:19.069Z,53.36
2022-09-20T11:20:17.069Z,53.39
2022-09-20T11:21:19.061Z,53.48
2022-09-20T11:22:19.056Z,52.78
2022-09-20T11:23:20.057Z,52.97
2022-09-20T11:24:19.060Z,53.01
2022-09-20T11:25:20.396Z,53.14
2022-09-20T11:26:19.143Z,53.39
2022-09-20T11:27:20.056Z,53.76
2022-09-20T11:28:20.062Z,54.02
2022-09-20T11:29:21.061Z,54.16
2022-09-20T11:30:16.069Z,54.42
2022-09-20T11:31:19.122Z,54.37
2022-09-20T11:32:18.058Z,54.15
2022-09-20T11:33:17.063Z,53.73
2022-09-20T11:34:20.067Z,53.80
2022-09-20T11:35:23.062Z,53.49
2022-09-20T11:36:19.058Z,53.52
2022-09-20T11:37:11.059Z,53.04
2022-09-20T11:38:19.070Z,52.98
2022-09-20T11:39:19.061Z,52.73
2022-09-20T11:40:22.074Z,51.97
2022-09-20T11:41:20.058Z,51.61
2022-09-20T11:42:16.061Z,50.89
2022-09-20T11:43:11.086Z,50.79
2022-09-20T11:44:15.059Z,50.55
2022-09-20T11:45:13.063Z,50.32
2022-09-20T11:46:13.146Z,50.38
2022-09-20T11:47:42.796Z,49.94
2022-09-20T11:48:22.106Z,50.15
2022-09-20T11:49:20.060Z,49.97
2022-09-20T11:50:19.063Z,49.85
2022-09-20T11:51:21.063Z,49.77
2022-09-20T11:52:21.065Z,49.74
2022-09-20T11:53:19.076Z,49.64
2022-09-20T11:54:19.064Z,49.33
2022-09-20T11:55:20.062Z,49.30
2022-09-20T11:56:19.067Z,49.07
2022-09-20T11:57:14.068Z,48.93
2022-09-20T11:58:12.075Z,48.68
2022-09-20T11:59:19.063Z,48.84
2022-09-20T12:00:11.067Z,48.29
2022-09-20T12:01:14.072Z,48.17
2022-09-20T12:02:19.165Z,47.97
2022-09-20T12:03:19.104Z,48.34
2022-09-20T12:04:32.430Z,48.29
2022-09-20T12:05:21.084Z,48.31
2022-09-20T12:06:19.078Z,48.55
2022-09-20T12:07:17.989Z,48.29
2022-09-20T12:08:19.066Z,47.96
2022-09-20T12:09:19.068Z,47.59
2022-09-20T12:10:20.068Z,47.33
2022-09-20T12:11:11.078Z,47.37
2022-09-20T12:12:19.065Z,47.67
2022-09-20T12:13:21.068Z,47.49
2022-09-20T12:14:19.067Z,47.52
2022-09-20T12:15:19.080Z,47.42
2022-09-20T12:16:17.213Z,47.26
2022-09-20T12:17:19.067Z,46.80
2022-09-20T12:18:20.070Z,46.75
2022-09-20T12:19:14.071Z,46.71
2022-09-20T12:20:19.367Z,46.59
2022-09-20T12:21:17.060Z,46.35
2022-09-20T12:22:19.055Z,45.96
2022-09-20T12:23:19.062Z,45.76
2022-09-20T12:24:18.066Z,45.32
2022-09-20T12:25:19.059Z,45.52
2022-09-20T12:26:18.058Z,45.10
2022-09-20T12:27:19.059Z,45.01
2022-09-20T12:28:15.061Z,44.78
2022-09-20T12:29:19.060Z,44.21
2022-09-20T12:30:19.061Z,43.95
2022-09-20T12:31:19.246Z,43.57
2022-09-20T12:32:19.062Z,43.45
2022-09-20T12:33:19.060Z,43.35
2022-09-20T12:34:19.058Z,43.13
2022-09-20T12:35:19.055Z,42.69
2022-09-20T12:36:15.089Z,42.39
2022-09-20T12:37:17.061Z,42.26
2022-09-20T12:38:21.061Z,42.65
2022-09-20T12:39:22.432Z,41.98
2022-09-20T12:40:18.121Z,41.74
2022-09-20T12:41:16.060Z,41.44
2022-09-20T12:42:19.070Z,41.50
2022-09-20T12:43:19.063Z,41.54
2022-09-20T12:44:19.061Z,41.35
2022-09-20T12:45:18.061Z,41.32
2022-09-20T12:46:19.106Z,41.24
2022-09-20T12:47:21.067Z,41.60
2022-09-20T12:48:18.060Z,42.09
2022-09-20T12:49:21.059Z,42.09
2022-09-20T12:50:17.066Z,42.21
2022-09-20T12:51:25.076Z,41.53
2022-09-20T12:52:23.076Z,41.60
2022-09-20T12:53:15.072Z,41.93
2022-09-20T12:54:12.065Z,41.89
2022-09-20T12:55:11.359Z,42.15
2022-09-20T12:56:16.071Z,42.26